Weldon, Louisiana
Current Conditions -  °F | °C
As of 1:15 PM on Monday 22 Dec 2014 (Local Time) from KRSN Reporting Station
Overcast Overcast  
Wind Chill: 59°   Ceiling: 1000
Heat Index: 59°   Visibility: 10mi
Dew Point: 58°   Wind: 0mph
Humidity: 95%   Direction: NA
Pressure: 29.68"   Gusts: NA
Location:  32.8225°N, 92.6234°W
Report Text: KRSN 221915Z AUTO 00000KT 10SM SCT006 BKN010 OVC016 15/14 A2968 RMK AO2 T01510143
Loading
Personal Weather Stations






























Interactive Weather Map New forecast layout! Learn more

10-Day Weather Forecast

Advertisements
Track Severe Weather on mobile